KDYA

Demopolis Regional Airport

Demopolis, Alabama, USA
METAR KDYA 141235Z AUTO 10005KT 7SM -RA OVC004 14/14 A2983 RMK AO2 T01380138
Observed Flight Rules
Dec-14 @ 12:35 UTC (17 minutes ago) Instrument Flight Rules
Wind Visibility Clouds Conditions
100° at 5 knots 7 miles
  • Overcast at 400' AGL
  • Light Rain
Temperatures Readings
Current 14°C / 57°F
Dewpoint 14°C / 57°F
Humidity 100%
Altimeter 29.83" Hg
Pressure 1010 hPa
Elevation 34
METAR KDYA 141235Z AUTO 10005KT 7SM -RA OVC004 14/14 A2983 RMK AO2 T01380138
Observed Flight Rules
Dec-14 @ 12:35 UTC
(17 minutes ago)
LIFR
Wind Visibility
100° at 5 knots 7 miles
Clouds
  • Overcast at 400' AGL
Conditions
  • Light Rain
Temperature Dewpoint
14°C / 57°F 14°C / 57°F
Humidity Altimeter Pressure
100% 29.83" Hg 1010 hPa